createdAt,value
2019-04-16T00:00:28.403Z,98077.44
2019-04-16T00:02:56.919Z,98081.55
2019-04-16T00:05:28.461Z,98080.30
2019-04-16T00:07:59.679Z,98080.65
2019-04-16T00:10:39.713Z,98076.30
2019-04-16T00:13:25.851Z,98081.37
2019-04-16T00:15:56.359Z,98076.16
2019-04-16T00:18:24.566Z,98076.78
2019-04-16T00:21:12.023Z,98076.05
2019-04-16T00:24:11.556Z,98070.81
2019-04-16T00:26:39.690Z,98068.77
2019-04-16T00:29:07.593Z,98029.55
2019-04-16T00:31:37.041Z,98050.73
2019-04-16T00:34:05.686Z,98060.72
2019-04-16T00:36:33.706Z,98054.11
2019-04-16T00:39:01.635Z,98058.36
2019-04-16T00:41:31.329Z,98054.66
2019-04-16T00:43:59.537Z,98049.45
2019-04-16T00:46:27.683Z,98049.30
2019-04-16T00:48:55.731Z,98046.70
2019-04-16T00:51:23.953Z,98057.12
2019-04-16T00:53:51.937Z,98051.95
2019-04-16T00:56:20.055Z,98051.38
2019-04-16T00:58:49.399Z,98051.50
2019-04-16T01:01:18.250Z,98050.57
2019-04-16T01:03:46.304Z,98051.21
2019-04-16T01:06:14.469Z,98053.98
2019-04-16T01:08:53.968Z,98048.08
2019-04-16T01:11:14.347Z,98051.84
2019-04-16T01:13:44.532Z,98053.80
2019-04-16T01:16:12.578Z,98054.95
2019-04-16T01:18:40.576Z,98052.01
2019-04-16T01:21:13.730Z,98052.39
2019-04-16T01:23:39.683Z,98050.50
2019-04-16T01:26:07.838Z,98047.38
2019-04-16T01:28:40.297Z,98046.54
2019-04-16T01:31:27.216Z,98052.22
2019-04-16T01:34:20.324Z,98053.92
2019-04-16T01:37:08.163Z,98053.27
2019-04-16T01:39:36.585Z,98050.23
2019-04-16T01:42:06.331Z,98050.27
2019-04-16T01:44:34.339Z,98048.57
2019-04-16T01:47:04.175Z,98045.66
2019-04-16T01:49:32.434Z,98045.84
2019-04-16T01:52:00.632Z,98040.75
2019-04-16T01:54:29.003Z,98036.55
2019-04-16T01:57:00.056Z,98038.01
2019-04-16T01:59:27.260Z,98039.70
2019-04-16T02:01:55.176Z,98042.41
2019-04-16T02:04:23.249Z,98036.73
2019-04-16T02:06:51.429Z,98034.37
2019-04-16T02:09:22.760Z,98035.73
2019-04-16T02:11:49.862Z,98033.06
2019-04-16T02:14:21.940Z,98036.23
2019-04-16T02:16:47.769Z,98040.60
2019-04-16T02:19:16.080Z,98044.24
2019-04-16T02:21:44.620Z,98032.14
2019-04-16T02:24:13.644Z,98044.88
2019-04-16T02:26:41.480Z,98043.52
2019-04-16T02:29:09.633Z,98045.19
2019-04-16T02:31:37.829Z,98049.27
2019-04-16T02:34:05.964Z,98047.11
2019-04-16T02:36:34.297Z,98046.11
2019-04-16T02:39:02.643Z,98042.94
2019-04-16T02:41:32.586Z,98038.73
2019-04-16T02:44:00.895Z,98047.99
2019-04-16T02:46:32.360Z,98040.17
2019-04-16T02:48:58.876Z,98041.87
2019-04-16T02:51:45.279Z,98041.77
2019-04-16T02:54:21.600Z,98045.48
2019-04-16T02:57:15.143Z,98042.53
2019-04-16T02:59:47.354Z,98036.97
2019-04-16T03:02:38.169Z,98046.84
2019-04-16T03:05:11.360Z,98035.55
2019-04-16T03:07:39.554Z,98045.38
2019-04-16T03:10:12.015Z,98039.73
2019-04-16T03:12:37.020Z,98039.36
2019-04-16T03:15:05.044Z,98037.23
2019-04-16T03:17:35.914Z,98035.66
2019-04-16T03:20:04.981Z,98034.39
2019-04-16T03:22:33.502Z,98012.42
2019-04-16T03:25:02.067Z,98027.57
2019-04-16T03:27:29.689Z,98030.60
2019-04-16T03:30:02.870Z,98006.13
2019-04-16T03:32:33.648Z,98026.86
2019-04-16T03:34:56.388Z,98024.32
2019-04-16T03:37:24.160Z,98024.39
2019-04-16T03:39:51.735Z,98023.06
2019-04-16T03:42:19.454Z,97995.52
2019-04-16T03:44:47.187Z,98018.80
2019-04-16T03:47:15.692Z,98020.55
2019-04-16T03:49:44.575Z,98021.80
2019-04-16T03:52:12.301Z,98017.59
2019-04-16T03:54:40.053Z,98021.90
2019-04-16T03:57:07.800Z,98026.28
2019-04-16T03:59:35.509Z,98028.55
2019-04-16T04:02:03.196Z,98027.73
2019-04-16T04:04:30.852Z,98025.95
2019-04-16T04:06:58.555Z,98030.73
2019-04-16T04:09:26.212Z,98034.25
2019-04-16T04:11:53.928Z,98028.61
2019-04-16T04:14:23.458Z,98025.70
2019-04-16T04:16:51.598Z,98032.63
2019-04-16T04:19:19.276Z,98026.54
2019-04-16T04:21:47.004Z,98035.33
2019-04-16T04:24:14.671Z,98033.95
2019-04-16T04:26:42.479Z,98037.05
2019-04-16T04:29:10.352Z,98034.02
2019-04-16T04:31:39.520Z,98040.05
2019-04-16T04:34:09.983Z,98044.02
2019-04-16T04:36:37.654Z,98043.39
2019-04-16T04:39:08.995Z,98046.80
2019-04-16T04:41:35.839Z,98052.05
2019-04-16T04:44:05.240Z,98053.33
2019-04-16T04:46:33.220Z,98049.87
2019-04-16T04:49:01.564Z,98055.50
2019-04-16T04:51:29.801Z,98055.30
2019-04-16T04:53:58.026Z,98054.26
2019-04-16T04:56:27.959Z,98055.44
2019-04-16T04:58:56.079Z,98061.91
2019-04-16T05:01:23.866Z,98067.89
2019-04-16T05:04:27.127Z,98061.26
2019-04-16T05:06:58.216Z,98068.16
2019-04-16T05:09:29.245Z,98058.36
2019-04-16T05:11:56.450Z,98053.48
2019-04-16T05:14:25.943Z,98061.03
2019-04-16T05:16:54.042Z,98056.52
2019-04-16T05:19:22.221Z,98056.27
2019-04-16T05:21:50.869Z,98059.22
2019-04-16T05:24:19.404Z,98060.69
2019-04-16T05:26:47.413Z,98031.61
2019-04-16T05:29:17.476Z,98067.55
2019-04-16T05:31:45.394Z,98061.86
2019-04-16T05:34:13.446Z,98062.92
2019-04-16T05:36:46.245Z,98064.30
2019-04-16T05:39:11.385Z,98065.48
2019-04-16T05:41:39.069Z,98064.82
2019-04-16T05:44:06.951Z,98058.81
2019-04-16T05:46:34.691Z,98063.33
2019-04-16T05:49:02.455Z,98054.94
2019-04-16T05:51:31.436Z,98055.98
2019-04-16T05:54:08.427Z,98066.97
2019-04-16T05:56:39.974Z,98067.14
2019-04-16T05:59:07.717Z,98073.57
2019-04-16T06:01:42.448Z,98065.33
2019-04-16T06:04:11.555Z,98065.63
2019-04-16T06:06:39.264Z,98065.06
2019-04-16T06:09:11.860Z,98065.50
2019-04-16T06:11:38.214Z,98067.28
2019-04-16T06:14:27.383Z,98067.31
2019-04-16T06:17:25.907Z,98068.36
2019-04-16T06:20:21.407Z,98068.88
2019-04-16T06:23:21.404Z,98044.44
2019-04-16T06:26:00.416Z,98068.80
2019-04-16T06:28:46.018Z,98061.52
2019-04-16T06:31:33.246Z,98065.00
2019-04-16T06:34:35.573Z,98068.22
2019-04-16T06:37:11.592Z,98059.27
2019-04-16T06:40:01.049Z,98059.65
2019-04-16T06:42:31.220Z,98052.83
2019-04-16T06:45:01.624Z,98047.00
2019-04-16T06:47:52.991Z,98041.72
2019-04-16T06:50:42.622Z,98043.50
2019-04-16T06:53:30.749Z,98046.78
2019-04-16T06:56:19.931Z,98047.14
2019-04-16T06:59:08.637Z,98049.39
2019-04-16T07:01:53.345Z,98045.95
2019-04-16T07:04:40.568Z,98044.64
2019-04-16T07:07:38.546Z,98048.98
2019-04-16T07:10:16.823Z,98049.53
2019-04-16T07:12:44.471Z,98049.00
2019-04-16T07:15:12.577Z,98052.82
2019-04-16T07:17:40.685Z,98047.61
2019-04-16T07:20:13.190Z,98048.21
2019-04-16T07:22:37.987Z,98053.41
2019-04-16T07:25:06.520Z,98051.08
2019-04-16T07:27:52.729Z,98046.16
2019-04-16T07:30:38.409Z,98046.79
2019-04-16T07:33:22.601Z,98047.45
2019-04-16T07:36:06.317Z,98035.00
2019-04-16T07:38:42.247Z,98036.18
2019-04-16T07:41:44.656Z,98034.73
2019-04-16T07:44:16.794Z,98033.52
2019-04-16T07:47:19.642Z,98012.09
2019-04-16T07:50:01.686Z,98025.79
2019-04-16T07:52:38.990Z,98015.27
2019-04-16T07:55:26.739Z,98027.09
2019-04-16T07:57:53.642Z,98024.73
2019-04-16T08:00:21.458Z,98022.30
2019-04-16T08:02:50.779Z,98017.95
2019-04-16T08:05:18.760Z,98024.63
2019-04-16T08:07:46.561Z,98024.09
2019-04-16T08:10:16.742Z,98020.98
2019-04-16T08:12:50.494Z,98025.77
2019-04-16T08:15:18.199Z,98026.02
2019-04-16T08:17:45.876Z,98023.47
2019-04-16T08:20:13.495Z,98023.49
2019-04-16T08:22:41.191Z,98010.80
2019-04-16T08:25:08.929Z,97999.33
2019-04-16T08:27:36.533Z,98015.69
2019-04-16T08:30:07.147Z,98005.40
2019-04-16T08:32:34.878Z,97997.55
2019-04-16T08:35:02.461Z,98003.50
2019-04-16T08:37:31.050Z,98002.11
2019-04-16T08:39:58.725Z,97995.67
2019-04-16T08:42:29.332Z,97999.39
2019-04-16T08:44:55.804Z,97996.28
2019-04-16T08:47:24.641Z,97992.91
2019-04-16T08:49:54.111Z,97995.39
2019-04-16T08:52:21.670Z,97989.98
2019-04-16T08:54:50.387Z,97983.78
2019-04-16T08:57:18.763Z,97984.41
2019-04-16T08:59:46.333Z,97980.82
2019-04-16T09:02:13.970Z,97984.69
2019-04-16T09:04:41.601Z,97978.02
2019-04-16T09:07:21.264Z,97983.55
2019-04-16T09:09:51.377Z,97984.70
2019-04-16T09:12:19.014Z,97975.04
2019-04-16T09:14:51.567Z,97977.09
2019-04-16T09:17:28.018Z,97978.21
2019-04-16T09:20:01.764Z,97974.08
2019-04-16T09:22:29.685Z,97974.96
2019-04-16T09:25:13.846Z,97962.41
2019-04-16T09:27:42.593Z,97966.59
2019-04-16T09:30:32.924Z,97965.58
2019-04-16T09:33:23.804Z,97963.08
2019-04-16T09:36:09.628Z,97946.54
2019-04-16T09:38:46.500Z,97962.52
2019-04-16T09:41:33.886Z,97961.16
2019-04-16T09:44:01.855Z,97957.23
2019-04-16T09:46:49.763Z,97956.54
2019-04-16T09:48:59.416Z,97947.83
2019-04-16T09:51:27.728Z,97952.61
2019-04-16T09:53:55.343Z,97960.17
2019-04-16T09:56:29.033Z,97941.82
2019-04-16T09:58:59.214Z,97943.64
2019-04-16T10:01:31.520Z,97940.22
2019-04-16T10:03:59.073Z,97938.94
2019-04-16T10:06:26.788Z,97934.80
2019-04-16T10:08:56.732Z,97927.98
2019-04-16T10:11:23.889Z,97925.30
2019-04-16T10:13:51.533Z,97927.99
2019-04-16T10:16:21.279Z,97926.69
2019-04-16T10:18:48.924Z,97924.96
2019-04-16T10:21:19.682Z,97909.03
2019-04-16T10:24:13.067Z,97911.47
2019-04-16T10:26:40.439Z,97911.34
2019-04-16T10:29:11.831Z,97909.38
2019-04-16T10:31:39.479Z,97906.73
2019-04-16T10:34:07.140Z,97908.62
2019-04-16T10:36:38.012Z,97911.90
2019-04-16T10:39:15.050Z,97909.33
2019-04-16T10:41:50.701Z,97920.02
2019-04-16T10:44:37.830Z,97905.52
2019-04-16T10:47:31.033Z,97910.91
2019-04-16T10:50:36.103Z,97907.61
2019-04-16T10:53:20.577Z,97899.77
2019-04-16T10:56:22.809Z,97901.01
2019-04-16T10:59:12.923Z,97900.20
2019-04-16T11:02:10.638Z,97892.97
2019-04-16T11:05:19.291Z,97883.45
2019-04-16T11:07:46.271Z,97876.41
2019-04-16T11:10:14.062Z,97879.89
2019-04-16T11:12:41.629Z,97882.06
2019-04-16T11:15:11.604Z,97882.11
2019-04-16T11:17:39.369Z,97876.15
2019-04-16T11:20:07.351Z,97881.30
2019-04-16T11:22:35.381Z,97873.58
2019-04-16T11:25:03.408Z,97871.61
2019-04-16T11:27:32.261Z,97878.55
2019-04-16T11:30:00.418Z,97872.70
2019-04-16T11:32:29.990Z,97868.73
2019-04-16T11:34:58.344Z,97866.21
2019-04-16T11:37:27.532Z,97867.00
2019-04-16T11:39:55.693Z,97867.47
2019-04-16T11:42:23.906Z,97861.98
2019-04-16T11:44:51.618Z,97861.45
2019-04-16T11:47:19.299Z,97865.13
2019-04-16T11:49:46.983Z,97866.35
2019-04-16T11:52:15.919Z,97867.84
2019-04-16T11:54:46.801Z,97863.25
2019-04-16T11:57:13.962Z,97853.84
2019-04-16T11:59:41.756Z,97857.56
2019-04-16T12:02:18.404Z,97862.91
2019-04-16T12:04:59.356Z,97852.20
2019-04-16T12:07:47.113Z,97843.73
2019-04-16T12:10:33.620Z,97843.31
2019-04-16T12:13:26.332Z,97846.81
2019-04-16T12:16:13.550Z,97831.67
2019-04-16T12:19:12.611Z,97823.15
2019-04-16T12:22:05.919Z,97822.18
2019-04-16T12:25:05.213Z,97821.75
2019-04-16T12:28:12.484Z,97825.59
2019-04-16T12:31:02.562Z,97814.81
2019-04-16T12:33:49.795Z,97821.17
2019-04-16T12:36:52.045Z,97802.73
2019-04-16T12:39:37.460Z,97803.88
2019-04-16T12:42:27.973Z,97803.64
2019-04-16T12:45:13.721Z,97801.86
2019-04-16T12:47:48.505Z,97803.25
2019-04-16T12:50:35.788Z,97806.93
2019-04-16T12:53:12.954Z,97803.02
2019-04-16T12:56:06.029Z,97812.36
2019-04-16T12:58:55.028Z,97810.41
2019-04-16T13:01:54.190Z,97815.62
2019-04-16T13:04:39.965Z,97814.34
2019-04-16T13:07:30.140Z,97813.73
2019-04-16T13:10:08.943Z,97804.95
2019-04-16T13:12:58.310Z,97793.38
2019-04-16T13:15:48.306Z,97794.37
2019-04-16T13:18:35.865Z,97801.33
2019-04-16T13:21:20.432Z,97799.84
2019-04-16T13:24:01.040Z,97793.58
2019-04-16T13:26:34.081Z,97783.06
2019-04-16T13:29:05.324Z,97792.33
2019-04-16T13:31:33.036Z,97787.04
2019-04-16T13:34:00.731Z,97782.63
2019-04-16T13:36:28.501Z,97775.81
2019-04-16T13:39:04.938Z,97773.93
2019-04-16T13:41:32.953Z,97772.98
2019-04-16T13:44:07.939Z,97768.77
2019-04-16T13:46:34.837Z,97767.81
2019-04-16T13:49:32.276Z,97762.80
2019-04-16T13:52:00.614Z,97759.02
2019-04-16T13:54:39.561Z,97760.14
2019-04-16T13:57:11.419Z,97758.58
2019-04-16T14:00:03.028Z,97750.27
2019-04-16T14:02:47.801Z,97758.81
2019-04-16T14:05:15.528Z,97752.03
2019-04-16T14:07:43.255Z,97751.36
2019-04-16T14:10:11.612Z,97753.63
2019-04-16T14:12:42.139Z,97758.28
2019-04-16T14:15:09.536Z,97763.11
2019-04-16T14:17:51.792Z,97755.88
2019-04-16T14:20:08.583Z,97762.71
2019-04-16T14:22:37.250Z,97754.41
2019-04-16T14:25:05.234Z,97752.58
2019-04-16T14:27:32.975Z,97759.09
2019-04-16T14:30:00.826Z,97762.11
2019-04-16T14:32:28.488Z,97757.45
2019-04-16T14:35:00.819Z,97757.45
2019-04-16T14:37:29.666Z,97756.71
2019-04-16T14:40:05.888Z,97751.85
2019-04-16T14:42:33.551Z,97755.39
2019-04-16T14:45:11.536Z,97749.33
2019-04-16T14:47:40.187Z,97752.00
2019-04-16T14:50:07.718Z,97748.92
2019-04-16T14:52:35.481Z,97742.37
2019-04-16T14:55:12.798Z,97745.18
2019-04-16T14:57:58.754Z,97746.07
2019-04-16T15:00:44.890Z,97745.20
2019-04-16T15:03:32.170Z,97744.63
2019-04-16T15:06:12.114Z,97739.78
2019-04-16T15:08:57.945Z,97736.64
2019-04-16T15:11:51.050Z,97739.53
2019-04-16T15:14:32.870Z,97728.08
2019-04-16T15:17:12.187Z,97741.20
2019-04-16T15:20:01.375Z,97737.52
2019-04-16T15:23:05.120Z,97740.33
2019-04-16T15:25:53.532Z,97741.45
2019-04-16T15:28:29.406Z,97736.61
2019-04-16T15:31:02.668Z,97734.25
2019-04-16T15:33:55.752Z,97738.42
2019-04-16T15:36:50.539Z,97738.51
2019-04-16T15:39:35.379Z,97742.67
2019-04-16T15:42:28.951Z,97739.38
2019-04-16T15:45:03.425Z,97748.92
2019-04-16T15:47:49.365Z,97747.43
2019-04-16T15:50:25.797Z,97747.98
2019-04-16T15:52:59.275Z,97746.71
2019-04-16T15:55:46.500Z,97741.61
2019-04-16T15:58:32.738Z,97750.61
2019-04-16T16:01:19.958Z,97744.56
2019-04-16T16:04:05.497Z,97748.12
2019-04-16T16:06:33.378Z,97747.83
2019-04-16T16:09:20.444Z,97748.97
2019-04-16T16:12:10.613Z,97744.79
2019-04-16T16:14:39.158Z,97747.76
2019-04-16T16:17:07.110Z,97748.15
2019-04-16T16:19:34.714Z,97747.10
2019-04-16T16:22:02.478Z,97745.95
2019-04-16T16:24:30.105Z,97747.65
2019-04-16T16:26:57.701Z,97744.84
2019-04-16T16:29:25.224Z,97749.09
2019-04-16T16:31:52.831Z,97751.71
2019-04-16T16:34:20.446Z,97749.50
2019-04-16T16:36:48.152Z,97752.56
2019-04-16T16:39:15.695Z,97755.89
2019-04-16T16:41:46.706Z,97757.80
2019-04-16T16:44:14.471Z,97758.70
2019-04-16T16:46:57.198Z,97757.42
2019-04-16T16:49:24.391Z,97757.52
2019-04-16T16:52:29.581Z,97758.16
2019-04-16T16:54:59.265Z,97763.06
2019-04-16T16:57:35.878Z,97765.98
2019-04-16T17:00:27.401Z,97764.69
2019-04-16T17:03:20.381Z,97765.31
2019-04-16T17:05:48.409Z,97765.06
2019-04-16T17:08:16.115Z,97768.59
2019-04-16T17:10:43.675Z,97773.34
2019-04-16T17:13:14.640Z,97774.21
2019-04-16T17:15:41.945Z,97777.44
2019-04-16T17:18:09.659Z,97773.69
2019-04-16T17:20:38.342Z,97776.84
2019-04-16T17:23:07.252Z,97779.38
2019-04-16T17:25:36.806Z,97783.72
2019-04-16T17:28:04.865Z,97786.12
2019-04-16T17:30:32.539Z,97786.97
2019-04-16T17:33:00.073Z,97790.59
2019-04-16T17:35:27.626Z,97793.01
2019-04-16T17:37:55.396Z,97794.01
2019-04-16T17:41:00.683Z,97794.88
2019-04-16T17:43:37.003Z,97797.17
2019-04-16T17:46:27.113Z,97797.27
2019-04-16T17:49:14.268Z,97788.08
2019-04-16T17:52:13.599Z,97814.51
2019-04-16T17:55:00.727Z,97817.48
2019-04-16T17:57:46.785Z,97818.41
2019-04-16T18:00:34.651Z,97819.00
2019-04-16T18:03:16.477Z,97830.62
2019-04-16T18:05:50.995Z,97834.85
2019-04-16T18:08:44.448Z,97831.88
2019-04-16T18:11:15.628Z,97835.06
2019-04-16T18:14:06.676Z,97837.59
2019-04-16T18:16:40.895Z,97840.89
2019-04-16T18:19:28.726Z,97841.90
2019-04-16T18:22:21.694Z,97859.24
2019-04-16T18:25:11.645Z,97856.92
2019-04-16T18:27:44.181Z,97863.67
2019-04-16T18:30:46.200Z,97864.73
2019-04-16T18:33:20.859Z,97867.95
2019-04-16T18:36:16.561Z,97872.58
2019-04-16T18:39:05.107Z,97866.01
2019-04-16T18:41:44.232Z,97869.94
2019-04-16T18:44:31.288Z,97873.75
2019-04-16T18:47:27.686Z,97869.66
2019-04-16T18:49:57.728Z,97877.19
2019-04-16T18:52:25.528Z,97878.50
2019-04-16T18:54:53.168Z,97881.26
2019-04-16T18:57:20.997Z,97887.16
2019-04-16T18:59:48.656Z,97894.37
2019-04-16T19:02:16.400Z,97892.64
2019-04-16T19:04:44.045Z,97896.90
2019-04-16T19:07:11.722Z,97899.61
2019-04-16T19:09:39.300Z,97909.80
2019-04-16T19:12:07.165Z,97911.31
2019-04-16T19:14:36.702Z,97911.85
2019-04-16T19:17:04.804Z,97911.20
2019-04-16T19:19:32.381Z,97908.31
2019-04-16T19:22:00.116Z,97917.63
2019-04-16T19:24:27.732Z,97918.94
2019-04-16T19:26:55.353Z,97919.42
2019-04-16T19:29:23.251Z,97924.52
2019-04-16T19:31:54.778Z,97924.14
2019-04-16T19:34:20.423Z,97925.48
2019-04-16T19:36:48.106Z,97925.08
2019-04-16T19:39:15.775Z,97922.42
2019-04-16T19:41:43.515Z,97928.28
2019-04-16T19:44:11.199Z,97926.39
2019-04-16T19:46:38.928Z,97927.09
2019-04-16T19:49:06.685Z,97923.47
2019-04-16T19:51:34.405Z,97930.34
2019-04-16T19:54:02.077Z,97931.04
2019-04-16T19:56:33.270Z,97925.14
2019-04-16T19:58:59.588Z,97927.89
2019-04-16T20:01:27.590Z,97935.56
2019-04-16T20:03:55.614Z,97936.92
2019-04-16T20:06:26.166Z,97938.83
2019-04-16T20:08:53.732Z,97946.91
2019-04-16T20:11:23.015Z,97951.35
2019-04-16T20:13:50.598Z,97949.95
2019-04-16T20:16:18.421Z,97953.09
2019-04-16T20:18:51.151Z,97954.42
2019-04-16T20:21:15.771Z,97959.31
2019-04-16T20:23:43.366Z,97962.27
2019-04-16T20:26:11.099Z,97959.83
2019-04-16T20:28:38.721Z,97967.84
2019-04-16T20:31:07.672Z,97969.21
2019-04-16T20:33:35.303Z,97967.27
2019-04-16T20:36:03.116Z,97971.08
2019-04-16T20:38:31.015Z,97970.48
2019-04-16T20:40:58.761Z,97968.89
2019-04-16T20:43:26.455Z,97967.94
2019-04-16T20:45:54.343Z,97971.71
2019-04-16T20:48:21.989Z,97970.69
2019-04-16T20:50:52.676Z,97968.47
2019-04-16T20:53:19.276Z,97967.34
2019-04-16T20:55:48.162Z,97965.75
2019-04-16T20:58:15.811Z,97972.36
2019-04-16T21:00:45.977Z,97970.97
2019-04-16T21:03:21.936Z,97969.52
2019-04-16T21:05:57.448Z,97956.70
2019-04-16T21:08:12.722Z,97979.38
2019-04-16T21:10:40.423Z,97979.39
2019-04-16T21:13:08.072Z,97983.80
2019-04-16T21:15:35.718Z,97980.48
2019-04-16T21:18:03.788Z,97979.84
2019-04-16T21:20:31.606Z,97981.38
2019-04-16T21:23:01.875Z,97981.63
2019-04-16T21:25:28.741Z,97984.60
2019-04-16T21:28:07.549Z,97978.63
2019-04-16T21:30:35.607Z,97975.19
2019-04-16T21:33:21.156Z,97986.08
2019-04-16T21:35:51.476Z,97985.44
2019-04-16T21:38:25.670Z,97981.81
2019-04-16T21:40:56.354Z,97981.87
2019-04-16T21:43:22.865Z,97990.70
2019-04-16T21:45:50.566Z,97985.70
2019-04-16T21:48:18.073Z,97984.65
2019-04-16T21:50:47.592Z,97986.55
2019-04-16T21:53:15.343Z,97985.03
2019-04-16T21:55:43.060Z,97983.91
2019-04-16T21:58:14.541Z,97988.84
2019-04-16T22:00:59.759Z,97987.94
2019-04-16T22:03:29.946Z,97995.30
2019-04-16T22:05:57.994Z,97988.34
2019-04-16T22:08:29.390Z,97991.70
2019-04-16T22:10:55.963Z,97994.07
2019-04-16T22:13:23.689Z,97993.61
2019-04-16T22:15:53.767Z,98002.09
2019-04-16T22:18:22.333Z,98000.31
2019-04-16T22:20:49.889Z,98001.17
2019-04-16T22:23:19.338Z,98002.63
2019-04-16T22:25:46.924Z,98007.50
2019-04-16T22:28:14.704Z,98005.63
2019-04-16T22:30:43.527Z,98003.56
2019-04-16T22:33:11.280Z,98000.97
2019-04-16T22:35:39.014Z,97995.20
2019-04-16T22:38:06.769Z,97997.02
2019-04-16T22:40:54.957Z,97999.50
2019-04-16T22:43:57.256Z,97995.97
2019-04-16T22:46:38.043Z,97992.52
2019-04-16T22:49:06.119Z,97990.42
2019-04-16T22:51:34.160Z,98000.84
2019-04-16T22:54:02.083Z,97999.37
2019-04-16T22:56:40.646Z,98005.08
2019-04-16T22:59:08.805Z,98001.42
2019-04-16T23:01:37.601Z,98001.21
2019-04-16T23:04:05.291Z,98003.48
2019-04-16T23:06:37.798Z,98005.77
2019-04-16T23:09:02.837Z,97979.98
2019-04-16T23:11:32.204Z,98001.44
2019-04-16T23:14:02.495Z,98011.73
2019-04-16T23:16:29.427Z,98005.71
2019-04-16T23:18:57.258Z,98004.08
2019-04-16T23:21:24.845Z,98005.31
2019-04-16T23:23:52.528Z,98002.52
2019-04-16T23:26:20.282Z,97994.69
2019-04-16T23:28:48.051Z,98011.16
2019-04-16T23:31:15.686Z,98013.09
2019-04-16T23:33:43.576Z,98009.25
2019-04-16T23:36:16.542Z,98013.50
2019-04-16T23:38:42.527Z,98013.50
2019-04-16T23:41:15.341Z,98011.37
2019-04-16T23:44:00.228Z,98014.92
2019-04-16T23:46:47.390Z,97996.24
2019-04-16T23:49:43.692Z,98010.29
2019-04-16T23:52:15.803Z,98016.00
2019-04-16T23:54:52.696Z,98010.61
2019-04-16T23:57:49.078Z,98011.52
